Thunder radar more information blitzortung!


Radar de pluja more information rain snow radar


Visita la nostra xarxa de llocs de meteo:

Template documentation
and downloads

And another site



No particular awareness of the weather is required.    There are no Weather-warnings

Pagina Historial Weather Underground text

Diari Resum May 20, 2017 Unitats:  Imperial    Mètric   Tant
« Previous Dia
SegĂźent Dia »
Diari Setmana Mensual Anual Personalitzada
  Maxima: Minima: Media:
Temperatura: 79 °F 52.3 °F 67.1 °F
Punt de rosada: 51.4 °F 41.7 °F 46.6 °F
Humitat: 78 % 28 % 51 %
Wind Speed: 11.5 mph 0 mph 4.2 mph
RĂ fegues de vent: 11.5 mph - -
Vent:- - SSE
Pression baro: 30.3 in 30.1 in -
Precipitacions: 0 in    
Historical Graphs
 
 
Dades de taula per May 20, 2017
Temps Temperatura Punt de rosada Pression baro Vent Wind Speed RĂ fegues de vent Humitat Rainfall Rate (Hourly)
00:00 54.9 °F 45 °F 30.2 in Calm   3 mph 69 % 0 in
00:02 58.5 °F 46.2 °F 30.1 in NE 1.4 mph   64 % 0 in
00:07 58.5 °F 46.2 °F 30.1 in NNE 1.2 mph   64 % 0 in
00:10 54.5 °F 44.4 °F 30.2 in Calm   3 mph 69 % 0 in
00:20 54.3 °F 44.4 °F 30.2 in NNE 1 mph 2 mph 69 % 0 in
00:30 54 °F 44.1 °F 30.2 in NNE 1 mph 1 mph 69 % 0 in
00:40 53.8 °F 43.9 °F 30.2 in Calm     69 % 0 in
00:50 53.6 °F 44.1 °F 30.2 in NNE 1 mph 2 mph 70 % 0 in
01:00 53.2 °F 43.7 °F 30.2 in Calm     70 % 0 in
01:10 53.1 °F 43.5 °F 30.2 in Calm   1 mph 70 % 0 in
01:20 52.9 °F 43.3 °F 30.2 in Calm   2 mph 70 % 0 in
01:30 52.7 °F 43.2 °F 30.2 in Calm   1 mph 70 % 0 in
01:50 52.3 °F 42.8 °F 30.2 in NE 1 mph 1 mph 70 % 0 in
02:00 52.9 °F 43.7 °F 30.2 in Calm   1 mph 71 % 0 in
02:10 53.6 °F 44.4 °F 30.2 in Calm   2 mph 71 % 0 in
02:20 54.7 °F 45.5 °F 30.2 in Calm   1 mph 71 % 0 in
02:30 55.2 °F 45.1 °F 30.2 in East 1 mph 2 mph 69 % 0 in
02:40 55.6 °F 45.7 °F 30.2 in Calm   1 mph 69 % 0 in
02:50 55.8 °F 45.3 °F 30.2 in ESE 1 mph 3 mph 68 % 0 in
03:00 56.3 °F 45.9 °F 30.2 in East 1 mph 2 mph 68 % 0 in
03:10 56.5 °F 46 °F 30.2 in East 2 mph 3 mph 68 % 0 in
03:20 57 °F 46.2 °F 30.2 in ENE 2 mph 3 mph 67 % 0 in
03:30 57.6 °F 46.2 °F 30.2 in NE 2 mph 3 mph 66 % 0 in
03:40 58.3 °F 46.9 °F 30.2 in NE 1 mph 3 mph 66 % 0 in
03:50 59 °F 46.8 °F 30.2 in NE 3 mph 3 mph 64 % 0 in
04:00 59 °F 47.1 °F 30.2 in ENE 1 mph 3 mph 65 % 0 in
04:10 60.4 °F 48.2 °F 30.2 in ENE 1 mph 3 mph 64 % 0 in
04:20 60.4 °F 47.8 °F 30.2 in ENE 2 mph 2 mph 63 % 0 in
04:30 61.7 °F 48 °F 30.2 in SE 2 mph 3 mph 61 % 0 in
04:40 61.9 °F 47.8 °F 30.2 in SSW 1 mph 2 mph 60 % 0 in
04:50 62.1 °F 48 °F 30.2 in SW 2 mph 4 mph 60 % 0 in
05:00 62.6 °F 46.8 °F 30.2 in SW 3 mph 3 mph 56 % 0 in
05:10 65.1 °F 48.9 °F 30.2 in South 1 mph 3 mph 56 % 0 in
05:20 65.3 °F 47.7 °F 30.2 in South 1 mph 4 mph 53 % 0 in
05:30 65.8 °F 48.2 °F 30.2 in SSE 2 mph 4 mph 53 % 0 in
10:30 65.7 °F 47.5 °F 30.2 in WSW 2.3 mph 3.1 mph 52 % 0 in
10:35 65.7 °F 46.9 °F 30.2 in East 2.3 mph 2.3 mph 51 % 0 in
10:40 66 °F 47.5 °F 30.2 in ENE 2.9 mph 2.9 mph 51 % 0 in
10:45 66.6 °F 46.2 °F 30.2 in SSE 2.3 mph 2.3 mph 48 % 0 in
10:50 67.1 °F 47.3 °F 30.2 in West 9 mph 9 mph 49 % 0 in
10:55 66.7 °F 46.9 °F 30.2 in SW 9.2 mph 9.2 mph 49 % 0 in
11:00 67.5 °F 47.1 °F 30.2 in SSW 4.6 mph 4.6 mph 48 % 0 in
11:05 68.5 °F 47.5 °F 30.2 in South 4.7 mph 4.7 mph 47 % 0 in
11:10 68.7 °F 46.6 °F 30.2 in SW 4.6 mph 4.6 mph 45 % 0 in
11:15 69.6 °F 47.8 °F 30.2 in WSW 4.6 mph 4.6 mph 46 % 0 in
11:20 69.4 °F 47.1 °F 30.2 in East 5.8 mph 5.8 mph 45 % 0 in
11:25 69.6 °F 47.3 °F 30.2 in WSW 6.9 mph 6.9 mph 45 % 0 in
11:30 70.2 °F 47.1 °F 30.2 in SSE 5.8 mph 5.8 mph 44 % 0 in
11:35 69.4 °F 46.6 °F 30.2 in SSW 8.1 mph 8.1 mph 44 % 0 in
11:40 69.6 °F 46 °F 30.2 in WSW 9.2 mph 9.2 mph 43 % 0 in
11:45 69.8 °F 45.7 °F 30.2 in SW 2.3 mph 2.3 mph 42 % 0 in
11:50 70.9 °F 46.6 °F 30.2 in SSE 5.8 mph 5.8 mph 42 % 0 in
11:55 72.1 °F 47.8 °F 30.2 in South 3.5 mph 3.5 mph 42 % 0 in
12:00 71.6 °F 47.3 °F 30.2 in SSE 4.6 mph 4.6 mph 42 % 0 in
12:01 71.6 °F 46.6 °F 30.2 in SE 9.8 mph 9.8 mph 41 % 0 in
12:06 71.8 °F 46.8 °F 30.2 in SW 3.8 mph 3.8 mph 41 % 0 in
12:11 72 °F 46.9 °F 30.2 in WSW 5.8 mph 5.8 mph 41 % 0 in
12:16 72.1 °F 47.1 °F 30.2 in SSE 5.8 mph 5.8 mph 41 % 0 in
12:21 72.5 °F 47.5 °F 30.2 in West 5.8 mph 5.8 mph 41 % 0 in
12:26 72.7 °F 46.9 °F 30.2 in SW 8.1 mph 8.1 mph 40 % 0 in
12:31 72 °F 45.7 °F 30.2 in WSW 4.6 mph 4.6 mph 39 % 0 in
12:36 72.5 °F 46 °F 30.2 in WSW 4.9 mph 4.9 mph 39 % 0 in
12:41 73.2 °F 46.8 °F 30.2 in SW 4.6 mph 4.6 mph 39 % 0 in
12:46 73.8 °F 46.6 °F 30.2 in SW 3.5 mph 3.5 mph 38 % 0 in
12:51 73.2 °F 46 °F 30.2 in WSW 5.8 mph 5.8 mph 38 % 0 in
12:56 73 °F 45.9 °F 30.2 in SSE 9.2 mph 9.2 mph 38 % 0 in
13:01 72.3 °F 45.3 °F 30.2 in ESE 3.5 mph 3.5 mph 38 % 0 in
13:06 72 °F 44.2 °F 30.2 in ENE 3.5 mph 3.5 mph 37 % 0 in
13:11 73.2 °F 46 °F 30.2 in SW 3.1 mph 3.1 mph 38 % 0 in
13:16 74.8 °F 46 °F 30.2 in SE 4.6 mph 4.6 mph 36 % 0 in
13:21 75.2 °F 46.4 °F 30.2 in West 5.4 mph 5.4 mph 36 % 0 in
13:26 74.3 °F 45 °F 30.2 in SSW 4.6 mph 4.6 mph 35 % 0 in
13:31 75.9 °F 46.2 °F 30.2 in SE 2.3 mph 2.3 mph 35 % 0 in
13:36 76.8 °F 47.1 °F 30.2 in SSW 6 mph 6 mph 35 % 0 in
13:41 76.8 °F 47.1 °F 30.2 in South 5.8 mph 5.8 mph 35 % 0 in
13:46 76.6 °F 46.2 °F 30.2 in West 5.9 mph 5.9 mph 34 % 0 in
13:51 76.5 °F 45.1 °F 30.2 in North 4.6 mph 4.6 mph 33 % 0 in
13:56 76.6 °F 45.3 °F 30.2 in North 4.6 mph 4.6 mph 33 % 0 in
14:01 75.7 °F 44.6 °F 30.2 in West 8.1 mph 8.1 mph 33 % 0 in
14:06 76.6 °F 44.6 °F 30.2 in SW 3.5 mph 3.5 mph 32 % 0 in
14:11 76.1 °F 44.1 °F 30.2 in SSE 5.8 mph 5.8 mph 32 % 0 in
14:16 77.4 °F 44.4 °F 30.2 in SW 3.6 mph 3.6 mph 31 % 0 in
14:21 76.8 °F 43.9 °F 30.2 in SW 5.8 mph 5.8 mph 31 % 0 in
14:26 77.9 °F 44.8 °F 30.2 in SSW 2.3 mph 2.3 mph 31 % 0 in
14:31 78.3 °F 44.2 °F 30.2 in SW 9.7 mph 9.7 mph 30 % 0 in
14:36 78.1 °F 43.2 °F 30.2 in SW 5.8 mph 5.8 mph 29 % 0 in
14:41 78.1 °F 44.1 °F 30.2 in West 4.6 mph 4.6 mph 30 % 0 in
14:46 77.5 °F 42.8 °F 30.2 in SW 9.2 mph 9.2 mph 29 % 0 in
14:47 77.5 °F 42.8 °F 30.2 in WNW 6.9 mph 6.9 mph 29 % 0 in
14:52 77 °F 42.3 °F 30.2 in WSW 3.5 mph 3.5 mph 29 % 0 in
14:57 77.4 °F 41.7 °F 30.2 in WNW 5.8 mph 5.8 mph 28 % 0 in
15:02 77.7 °F 43 °F 30.2 in South 5.8 mph 5.8 mph 29 % 0 in
15:07 78.3 °F 43.3 °F 30.2 in WNW 5.8 mph 5.8 mph 29 % 0 in
15:12 77.7 °F 43 °F 30.2 in WNW 4.6 mph 4.6 mph 29 % 0 in
15:17 77.5 °F 41.7 °F 30.2 in WSW 5.6 mph 5.6 mph 28 % 0 in
15:22 77.9 °F 43.2 °F 30.2 in SSW 3.5 mph 3.5 mph 29 % 0 in
15:27 77.7 °F 43.9 °F 30.2 in SSW 10 mph 10 mph 30 % 0 in
15:32 77.4 °F 43.5 °F 30.2 in SSW 5.8 mph 5.8 mph 30 % 0 in
15:37 78.4 °F 44.4 °F 30.2 in ESE 2.3 mph 2.3 mph 30 % 0 in
15:42 79 °F 45.9 °F 30.2 in NNW 3.5 mph 3.5 mph 31 % 0 in
15:47 78.8 °F 45.7 °F 30.2 in South 3.5 mph 3.5 mph 31 % 0 in
15:52 78.6 °F 45.3 °F 30.2 in South 8.1 mph 8.1 mph 31 % 0 in
15:57 78.4 °F 45.3 °F 30.2 in NE 6.9 mph 6.9 mph 31 % 0 in
16:02 78.3 °F 45.1 °F 30.2 in WSW 5.9 mph 5.9 mph 31 % 0 in
16:07 77.9 °F 44.1 °F 30.2 in SW 8.1 mph 8.1 mph 30 % 0 in
16:12 78.6 °F 45.3 °F 30.2 in SW 5.8 mph 5.8 mph 31 % 0 in
16:17 78.3 °F 44.2 °F 30.2 in SW 8.1 mph 8.1 mph 30 % 0 in
16:22 78.3 °F 45.1 °F 30.2 in South 8.1 mph 8.1 mph 31 % 0 in
16:27 78.4 °F 44.4 °F 30.2 in SW 5.8 mph 5.8 mph 30 % 0 in
16:32 78.1 °F 44.1 °F 30.2 in SW 5.8 mph 5.8 mph 30 % 0 in
16:37 77.7 °F 43.9 °F 30.2 in SSW 8.1 mph 8.1 mph 30 % 0 in
16:42 77.7 °F 43.9 °F 30.2 in West 4.6 mph 4.6 mph 30 % 0 in
16:47 77.7 °F 43.9 °F 30.2 in SSW 4.6 mph 4.6 mph 30 % 0 in
16:52 77.9 °F 44.1 °F 30.2 in WSW 5.8 mph 5.8 mph 30 % 0 in
16:57 77.7 °F 43.9 °F 30.2 in WSW 5.8 mph 5.8 mph 30 % 0 in
17:02 78.4 °F 45.3 °F 30.2 in SSW 4.6 mph 4.6 mph 31 % 0 in
17:07 79 °F 45 °F 30.2 in South 4.9 mph 4.9 mph 30 % 0 in
17:12 78.3 °F 45.1 °F 30.2 in SSW 5.8 mph 5.8 mph 31 % 0 in
17:17 77.4 °F 44.4 °F 30.2 in South 5.8 mph 5.8 mph 31 % 0 in
17:22 77.4 °F 44.4 °F 30.2 in WSW 5.8 mph 5.8 mph 31 % 0 in
17:27 77 °F 44.1 °F 30.2 in SW 8.1 mph 8.1 mph 31 % 0 in
17:32 75.7 °F 43.9 °F 30.2 in SW 11.5 mph 11.5 mph 32 % 0 in
17:37 75.7 °F 44.6 °F 30.2 in SW 9.2 mph 9.2 mph 33 % 0 in
17:42 75.7 °F 44.6 °F 30.2 in SW 4.6 mph 4.6 mph 33 % 0 in
17:47 75.9 °F 44.8 °F 30.2 in WSW 5.8 mph 5.8 mph 33 % 0 in
17:52 75.2 °F 44.1 °F 30.2 in SW 8.1 mph 8.1 mph 33 % 0 in
17:57 75 °F 44.8 °F 30.2 in West 10.4 mph 10.4 mph 34 % 0 in
18:03 75 °F 45.5 °F 30.2 in South 8.1 mph 8.1 mph 35 % 0 in
18:08 74.5 °F 45 °F 30.2 in SSW 8.1 mph 8.1 mph 35 % 0 in
18:13 73.9 °F 45.3 °F 30.2 in SW 3.5 mph 3.5 mph 36 % 0 in
18:18 74.1 °F 45.5 °F 30.2 in SSE 5.8 mph 5.8 mph 36 % 0 in
18:23 73.8 °F 45.9 °F 30.2 in SW 8.1 mph 8.1 mph 37 % 0 in
18:28 72.9 °F 45.9 °F 30.2 in WSW 5.8 mph 5.8 mph 38 % 0 in
18:33 72.9 °F 45.9 °F 30.2 in SSE 8.1 mph 8.1 mph 38 % 0 in
18:38 72.7 °F 45.7 °F 30.2 in SSW 5.8 mph 5.8 mph 38 % 0 in
18:43 73 °F 46.6 °F 30.2 in SW 3.5 mph 3.5 mph 39 % 0 in
18:48 72.7 °F 46.2 °F 30.2 in WSW 4.6 mph 4.6 mph 39 % 0 in
18:53 72.5 °F 46 °F 30.2 in West 7.6 mph 7.6 mph 39 % 0 in
18:58 71.8 °F 45.5 °F 30.2 in SW 8.1 mph 8.1 mph 39 % 0 in
19:03 72 °F 45.7 °F 30.2 in West 2.4 mph 2.4 mph 39 % 0 in
19:08 71.6 °F 46 °F 30.2 in SSE 4.9 mph 4.9 mph 40 % 0 in
19:13 70.9 °F 45.3 °F 30.2 in SSE 3.5 mph 3.5 mph 40 % 0 in
19:18 70.9 °F 45.3 °F 30.2 in SW 2.4 mph 2.4 mph 40 % 0 in
19:20 59.5 °F 50.2 °F 30.3 in NE 2 mph 3 mph 71 % 0 in
19:23 71.1 °F 45.5 °F 30.2 in South 2.3 mph 2.3 mph 40 % 0 in
19:28 70.9 °F 45.3 °F 30.2 in SSE 4.6 mph 4.6 mph 40 % 0 in
19:30 59.4 °F 50.4 °F 30.3 in ENE 2 mph 2 mph 72 % 0 in
19:33 70.2 °F 44.8 °F 30.2 in ESE 4.6 mph 4.6 mph 40 % 0 in
19:38 70.2 °F 45.3 °F 30.2 in WSW 2.3 mph 2.3 mph 41 % 0 in
19:40 59.4 °F 50 °F 30.3 in ENE 1 mph 2 mph 71 % 0 in
19:43 69.3 °F 46.4 °F 30.2 in SE 4.6 mph 4.6 mph 44 % 0 in
19:48 68.2 °F 46.6 °F 30.2 in ESE 5.8 mph 5.8 mph 46 % 0 in
19:50 59.2 °F 50.2 °F 30.3 in Calm   2 mph 72 % 0 in
19:53 68 °F 47.7 °F 30.2 in ESE 6.4 mph 6.4 mph 48 % 0 in
19:58 67.8 °F 48 °F 30.2 in ENE 8.1 mph 8.1 mph 49 % 0 in
20:00 59 °F 50 °F 30.3 in Calm   3 mph 72 % 0 in
20:03 66.9 °F 47.7 °F 30.2 in ENE 5.8 mph 5.8 mph 50 % 0 in
20:08 66.9 °F 48.2 °F 30.2 in ESE 5.8 mph 5.8 mph 51 % 0 in
20:10 59 °F 50 °F 30.3 in ESE 1 mph 2 mph 72 % 0 in
20:13 66.6 °F 47.8 °F 30.2 in SE 5.8 mph 5.8 mph 51 % 0 in
20:18 66.4 °F 47.7 °F 30.2 in ESE 8.1 mph 8.1 mph 51 % 0 in
20:20 58.8 °F 49.8 °F 30.3 in ENE 1 mph 1 mph 72 % 0 in
20:23 66.2 °F 47.5 °F 30.2 in East 8.1 mph 8.1 mph 51 % 0 in
20:28 66 °F 47.8 °F 30.2 in ESE 9.2 mph 9.2 mph 52 % 0 in
20:30 58.6 °F 49.6 °F 30.3 in Calm   2 mph 72 % 0 in
20:33 65.7 °F 47.5 °F 30.2 in ENE 5.8 mph 5.8 mph 52 % 0 in
20:38 65.5 °F 47.5 °F 30.2 in ESE 6.9 mph 6.9 mph 52 % 0 in
20:40 58.5 °F 49.8 °F 30.3 in Calm   2 mph 73 % 0 in
20:43 65.3 °F 47.7 °F 30.2 in ENE 6.9 mph 6.9 mph 53 % 0 in
20:48 65.1 °F 47.7 °F 30.2 in East 6.9 mph 6.9 mph 53 % 0 in
20:50 58.5 °F 49.5 °F 30.3 in Calm     72 % 0 in
20:54 64.8 °F 47.1 °F 30.2 in East 5.8 mph 5.8 mph 53 % 0 in
20:58 64.8 °F 47.1 °F 30.2 in NNE 5.8 mph 5.8 mph 53 % 0 in
21:00 58.3 °F 49.6 °F 30.3 in Calm     73 % 0 in
21:03 64.6 °F 47.1 °F 30.2 in ESE 5.8 mph 5.8 mph 53 % 0 in
21:08 64.4 °F 47.5 °F 30.2 in ENE 5.6 mph 5.6 mph 54 % 0 in
21:10 58.3 °F 49.6 °F 30.3 in Calm     73 % 0 in
21:13 64 °F 47.5 °F 30.2 in ESE 4.6 mph 4.6 mph 55 % 0 in
21:18 64 °F 47.5 °F 30.2 in NE 5.8 mph 6 mph 55 % 0 in
21:20 58.1 °F 49.5 °F 30.3 in Calm     73 % 0 in
21:23 63.7 °F 47.1 °F 30.2 in East 5.8 mph 5.8 mph 55 % 0 in
21:28 63.7 °F 47.7 °F 30.2 in NNE 4.6 mph 4.6 mph 56 % 0 in
21:30 57.9 °F 49.3 °F 30.3 in Calm   1 mph 73 % 0 in
21:33 63.5 °F 47.5 °F 30.2 in ESE 9.2 mph 9.2 mph 56 % 0 in
21:38 63.3 °F 47.3 °F 30.2 in East 5.8 mph 5.8 mph 56 % 0 in
21:40 57.7 °F 49.1 °F 30.3 in Calm     73 % 0 in
21:43 63.1 °F 47.1 °F 30.2 in ENE 6.9 mph 6.9 mph 56 % 0 in
21:48 63.1 °F 47.1 °F 30.2 in NE 5.8 mph 5.8 mph 56 % 0 in
21:50 57.4 °F 49.3 °F 30.3 in Calm   1 mph 74 % 0 in
21:53 63 °F 47.5 °F 30.2 in ENE 8.1 mph 8.1 mph 57 % 0 in
21:58 62.8 °F 47.3 °F 30.2 in ESE 5.8 mph 5.8 mph 57 % 0 in
22:00 57.2 °F 48.9 °F 30.3 in Calm     74 % 0 in
22:03 62.8 °F 47.8 °F 30.2 in SSE 4.6 mph 4.6 mph 58 % 0 in
22:08 62.6 °F 48 °F 30.2 in ESE 4.9 mph 4.9 mph 59 % 0 in
22:10 56.8 °F 48.6 °F 30.3 in Calm     74 % 0 in
22:13 62.4 °F 48.7 °F 30.2 in ESE 3.5 mph 3.5 mph 61 % 0 in
22:18 62.2 °F 48.6 °F 30.2 in NNE 3.5 mph 3.5 mph 61 % 0 in
22:20 56.5 °F 48.6 °F 30.3 in Calm     75 % 0 in
22:23 61.9 °F 48.7 °F 30.2 in ENE 3.6 mph 3.6 mph 62 % 0 in
22:28 61.9 °F 49.1 °F 30.2 in ESE 5.8 mph 5.8 mph 63 % 0 in
22:30 56.1 °F 48.4 °F 30.3 in Calm     75 % 0 in
22:33 61.7 °F 49.8 °F 30.2 in ESE 5.8 mph 5.8 mph 65 % 0 in
22:38 61.5 °F 50.2 °F 30.2 in ENE 5.8 mph 5.8 mph 66 % 0 in
22:40 55.9 °F 48 °F 30.3 in Calm     75 % 0 in
22:43 61.3 °F 49.8 °F 30.2 in East 3.5 mph 3.5 mph 66 % 0 in
22:48 61.3 °F 50.4 °F 30.2 in East 5.8 mph 5.8 mph 67 % 0 in
22:50 55.8 °F 48.4 °F 30.3 in Calm   1 mph 76 % 0 in
22:53 61.3 °F 50.7 °F 30.2 in ENE 3.8 mph 3.8 mph 68 % 0 in
22:58 61.2 °F 50.5 °F 30.2 in NE 4.6 mph 4.6 mph 68 % 0 in
23:00 55.6 °F 48 °F 30.3 in Calm   1 mph 76 % 0 in
23:03 61.2 °F 50.5 °F 30.2 in ENE 5.8 mph 5.8 mph 68 % 0 in
23:08 61 °F 50.7 °F 30.3 in ENE 3.3 mph 3.3 mph 69 % 0 in
23:10 55.4 °F 48.4 °F 30.3 in Calm     77 % 0 in
23:13 61 °F 50.7 °F 30.3 in East 3.6 mph 3.6 mph 69 % 0 in
23:18 60.8 °F 50.5 °F 30.3 in ESE 3.6 mph 3.6 mph 69 % 0 in
23:20 55 °F 48 °F 30.3 in Calm     77 % 0 in
23:23 60.8 °F 51.1 °F 30.3 in ESE 4.6 mph 4.6 mph 70 % 0 in
23:28 60.6 °F 50.7 °F 30.3 in East 2.3 mph 2.6 mph 70 % 0 in
23:30 54.7 °F 47.7 °F 30.3 in Calm   1 mph 77 % 0 in
23:33 60.6 °F 50.7 °F 30.3 in ENE 3.5 mph 3.5 mph 70 % 0 in
23:38 60.6 °F 51.4 °F 30.3 in ENE 3.5 mph 3.5 mph 72 % 0 in
23:40 54.7 °F 48 °F 30.3 in Calm     78 % 0 in
23:43 60.4 °F 51.1 °F 30.3 in NE 4 mph 4 mph 71 % 0 in
23:44 60.4 °F 51.1 °F 30.3 in ENE 4.6 mph 4.6 mph 71 % 0 in
23:49 60.3 °F 50.7 °F 30.3 in East 4.6 mph 4.6 mph 71 % 0 in
23:50 54.5 °F 47.8 °F 30.3 in Calm     78 % 0 in
23:54 60.1 °F 50.5 °F 30.3 in ENE 2.9 mph 2.9 mph 71 % 0 in
23:59 60.1 °F 50.5 °F 30.3 in East 2.3 mph 2.3 mph 71 % 0 in
Meteo Sesrovires
Elogis d' Weather Underground - 3.75 mb

Guio original per  Jim McMurry - jmcmurry@mwt.net Adaptat per a la plantilla per  Wim van der Kuil - Leuven-Template.eu

Trobareu la nostra informacio del temps tambe a:

Weather Underground

AWEKAS